Time;durP1;ratioP1;P1;durP2;ratioP2;P2;SDS_P1;SDS_P2;PMS_P1;PMS_P2;Temp;Humidity;BMP_temperature;BMP_pressure;BME280_temperature;BME280_humidity;BME280_pressure;Samples;Min_cycle;Max_cycle;Signal;HPM_P1;HPM_P2
2022/04/13 00:01:43;;;;;;;12.30;7.43;;;15.10;99.90;;;;;;5114753;28;20224;-77
2022/04/13 00:04:10;;;;;;;9.97;7.27;;;15.10;99.90;;;;;;5115015;28;20224;-77
2022/04/13 00:06:38;;;;;;;13.57;7.17;;;15.10;99.90;;;;;;5117055;28;20223;-76
2022/04/13 00:09:07;;;;;;;15.13;8.20;;;15.10;99.90;;;;;;5114735;28;20204;-77
2022/04/13 00:11:33;;;;;;;15.20;7.40;;;15.10;99.90;;;;;;5115370;28;20189;-78
2022/04/13 00:14:01;;;;;;;14.67;8.07;;;15.10;99.90;;;;;;5117949;28;20203;-76
2022/04/13 00:16:28;;;;;;;18.90;8.30;;;15.10;99.90;;;;;;5116189;28;20200;-77
2022/04/13 00:18:56;;;;;;;13.97;8.10;;;15.20;99.90;;;;;;5115237;28;20201;-77
2022/04/13 00:21:23;;;;;;;11.23;7.80;;;15.20;99.90;;;;;;5115753;28;20208;-76
2022/04/13 00:23:50;;;;;;;15.53;7.43;;;15.20;99.90;;;;;;5115887;28;20205;-76
2022/04/13 00:26:16;;;;;;;14.53;7.90;;;15.20;99.90;;;;;;5116063;28;20594;-77
2022/04/13 00:28:43;;;;;;;12.80;6.70;;;15.10;99.90;;;;;;5114844;28;20222;-77
2022/04/13 00:31:10;;;;;;;16.70;8.50;;;15.10;99.90;;;;;;5114025;28;20455;-78
2022/04/13 00:33:38;;;;;;;11.93;7.07;;;15.10;99.90;;;;;;5114517;28;20583;-77
2022/04/13 00:36:06;;;;;;;15.97;7.80;;;15.10;99.90;;;;;;5114031;28;20572;-77
2022/04/13 00:38:33;;;;;;;19.73;8.03;;;15.00;99.90;;;;;;5114466;27;20211;-77
2022/04/13 00:41:00;;;;;;;13.50;8.30;;;15.00;99.90;;;;;;5114696;28;20219;-76
2022/04/13 00:43:27;;;;;;;11.20;7.67;;;15.00;99.90;;;;;;5114500;28;20226;-76
2022/04/13 00:45:54;;;;;;;13.77;8.17;;;14.90;99.90;;;;;;5113898;28;20232;-78
2022/04/13 00:48:29;;;;;;;16.60;7.87;;;14.80;99.90;;;;;;5114375;28;20201;-76
2022/04/13 00:50:56;;;;;;;16.90;8.00;;;14.80;99.90;;;;;;5114119;28;20204;-77
2022/04/13 00:53:25;;;;;;;14.70;8.27;;;14.90;99.90;;;;;;5113455;28;20207;-77
2022/04/13 00:55:56;;;;;;;15.30;7.90;;;15.00;99.90;;;;;;5113582;28;20544;-77
2022/04/13 00:58:27;;;;;;;16.17;9.07;;;14.90;99.90;;;;;;5114126;28;20204;-75
2022/04/13 01:00:54;;;;;;;16.70;8.77;;;15.00;99.90;;;;;;5113660;28;20196;-75
2022/04/13 01:03:24;;;;;;;15.80;9.00;;;14.80;99.90;;;;;;5114033;28;20201;-75
2022/04/13 01:05:52;;;;;;;19.20;9.80;;;14.80;99.90;;;;;;5113436;28;20690;-75
2022/04/13 01:08:20;;;;;;;15.60;8.53;;;14.80;99.90;;;;;;5113824;28;20204;-76
2022/04/13 01:10:50;;;;;;;16.47;8.97;;;14.80;99.90;;;;;;5113611;28;20539;-76
2022/04/13 01:13:18;;;;;;;16.80;8.80;;;15.00;99.90;;;;;;5113807;28;20197;-76
2022/04/13 01:15:45;;;;;;;13.77;8.90;;;15.00;99.90;;;;;;5112993;28;20200;-76
2022/04/13 01:18:13;;;;;;;11.07;8.27;;;15.00;99.90;;;;;;5113546;28;20200;-76
2022/04/13 01:20:52;;;;;;;15.83;9.30;;;14.90;99.90;;;;;;5113531;28;20196;-76
2022/04/13 01:23:21;;;;;;;20.13;9.70;;;14.90;99.90;;;;;;5113491;28;20635;-76
2022/04/13 01:25:51;;;;;;;18.67;9.83;;;14.90;99.90;;;;;;5113244;28;20228;-77
2022/04/13 01:28:18;;;;;;;15.60;9.27;;;14.90;99.90;;;;;;5113303;28;20232;-76
2022/04/13 01:30:45;;;;;;;18.83;9.20;;;14.90;99.90;;;;;;5113258;28;20204;-75
2022/04/13 01:33:13;;;;;;;15.80;9.33;;;14.80;99.90;;;;;;5113564;28;20184;-76
2022/04/13 01:35:39;;;;;;;17.00;8.70;;;14.80;99.90;;;;;;5113701;28;20192;-74
2022/04/13 01:38:07;;;;;;;18.60;9.47;;;14.70;99.90;;;;;;5113243;28;20197;-76
2022/04/13 01:40:35;;;;;;;16.40;9.20;;;14.70;99.90;;;;;;5112816;28;20209;-76
2022/04/13 01:43:02;;;;;;;16.47;9.33;;;14.80;99.90;;;;;;5113461;28;20200;-76
2022/04/13 01:45:29;;;;;;;16.87;9.83;;;14.70;99.90;;;;;;5113086;28;20220;-76
2022/04/13 01:47:56;;;;;;;16.97;9.67;;;14.70;99.90;;;;;;5113125;28;20204;-76
2022/04/13 01:50:23;;;;;;;16.67;10.07;;;14.70;99.90;;;;;;5113473;28;20212;-76
2022/04/13 01:52:50;;;;;;;16.70;9.87;;;14.70;99.90;;;;;;5113436;28;20204;-76
2022/04/13 01:55:17;;;;;;;14.20;9.47;;;14.70;99.90;;;;;;5113409;28;20200;-77
2022/04/13 01:57:46;;;;;;;20.43;10.37;;;14.60;99.90;;;;;;5113242;28;20228;-76
2022/04/13 02:00:14;;;;;;;18.33;9.30;;;14.60;99.90;;;;;;5112849;28;20560;-77
2022/04/13 02:02:41;;;;;;;16.17;9.57;;;14.50;99.90;;;;;;5113044;28;20280;-77
2022/04/13 02:05:09;;;;;;;17.00;9.37;;;14.40;99.90;;;;;;5115882;28;20307;-78
2022/04/13 02:07:36;;;;;;;15.47;9.63;;;14.50;99.90;;;;;;5117367;28;20204;-78
2022/04/13 02:10:05;;;;;;;15.70;10.00;;;14.50;99.90;;;;;;5117253;28;20199;-78
2022/04/13 02:12:32;;;;;;;15.45;10.23;;;14.60;99.90;;;;;;5117243;28;20424;-77
2022/04/13 02:15:00;;;;;;;18.50;10.50;;;14.60;99.90;;;;;;5116585;28;20554;-77
2022/04/13 02:17:27;;;;;;;16.80;10.17;;;14.50;99.90;;;;;;5117406;28;20200;-77
2022/04/13 02:19:54;;;;;;;18.50;10.47;;;14.40;99.90;;;;;;5117281;28;20205;-77
2022/04/13 02:22:20;;;;;;;16.10;10.07;;;14.40;99.90;;;;;;5116861;28;20231;-77
2022/04/13 02:24:47;;;;;;;15.93;10.70;;;14.50;99.90;;;;;;5117069;27;20188;-78
2022/04/13 02:27:14;;;;;;;14.30;10.93;;;14.50;99.90;;;;;;5116619;28;20260;-77
2022/04/13 02:29:44;;;;;;;17.07;10.43;;;14.50;99.90;;;;;;5116768;28;20193;-77
2022/04/13 02:32:12;;;;;;;15.27;10.33;;;14.50;99.90;;;;;;5117157;27;20245;-77
2022/04/13 02:34:39;;;;;;;13.57;10.37;;;14.50;99.90;;;;;;5117193;27;20205;-76
2022/04/13 02:37:06;;;;;;;17.17;10.30;;;14.40;99.90;;;;;;5117386;27;20208;-76
2022/04/13 02:39:33;;;;;;;16.07;9.83;;;14.30;99.90;;;;;;5118011;28;20188;-76
2022/04/13 02:42:00;;;;;;;18.20;10.03;;;14.20;99.90;;;;;;5120864;28;20212;-76
2022/04/13 02:44:27;;;;;;;20.23;10.20;;;14.40;99.90;;;;;;5121636;28;20291;-78
2022/04/13 02:46:53;;;;;;;14.40;9.77;;;14.50;99.90;;;;;;5121271;28;20220;-77
2022/04/13 02:49:22;;;;;;;15.70;10.63;;;14.50;99.90;;;;;;5120669;28;20188;-77
2022/04/13 02:51:49;;;;;;;20.17;10.47;;;14.50;99.90;;;;;;5121060;28;20256;-78
2022/04/13 02:54:16;;;;;;;15.75;10.27;;;14.50;99.90;;;;;;5117285;28;20425;-77
2022/04/13 02:56:43;;;;;;;18.00;10.97;;;14.60;99.90;;;;;;5116551;28;20647;-77
2022/04/13 02:59:10;;;;;;;15.77;10.67;;;14.60;99.90;;;;;;5116276;28;20200;-76
2022/04/13 03:01:36;;;;;;;16.20;10.10;;;14.60;99.90;;;;;;5116367;28;20196;-76
2022/04/13 03:04:04;;;;;;;15.47;10.80;;;14.50;99.90;;;;;;5116114;28;20192;-76
2022/04/13 03:06:32;;;;;;;14.47;10.47;;;14.50;99.90;;;;;;5116122;28;20237;-77
2022/04/13 03:08:58;;;;;;;16.57;11.77;;;14.60;99.90;;;;;;5115991;28;20215;-76
2022/04/13 03:11:25;;;;;;;16.63;10.97;;;14.60;99.90;;;;;;5115559;28;20200;-76
2022/04/13 03:13:52;;;;;;;17.20;10.80;;;14.70;99.90;;;;;;5116104;28;20238;-78
2022/04/13 03:16:19;;;;;;;20.23;12.40;;;14.50;99.90;;;;;;5114951;28;20784;-77
2022/04/13 03:18:46;;;;;;;17.10;10.90;;;14.60;99.90;;;;;;5116029;28;20235;-76
2022/04/13 03:21:13;;;;;;;13.47;11.23;;;14.50;99.90;;;;;;5115921;28;20204;-77
2022/04/13 03:23:42;;;;;;;22.63;11.67;;;14.50;99.90;;;;;;5116170;28;20196;-76
2022/04/13 03:26:09;;;;;;;18.37;10.87;;;14.50;99.90;;;;;;5115394;28;20228;-76
2022/04/13 03:28:35;;;;;;;17.67;12.07;;;14.40;99.90;;;;;;5115644;28;20216;-77
2022/04/13 03:31:02;;;;;;;19.63;11.23;;;14.40;99.90;;;;;;5115705;28;20197;-77
2022/04/13 03:33:29;;;;;;;16.63;10.73;;;14.40;99.90;;;;;;5115396;28;20280;-78
2022/04/13 03:35:56;;;;;;;19.70;10.73;;;14.40;99.90;;;;;;5115392;28;20201;-76
2022/04/13 03:38:23;;;;;;;21.30;10.93;;;14.30;99.90;;;;;;5115527;28;20538;-78
2022/04/13 03:40:51;;;;;;;18.17;11.50;;;14.30;99.90;;;;;;5115094;28;20216;-77
2022/04/13 03:43:18;;;;;;;21.03;11.77;;;14.20;99.90;;;;;;5115399;28;20211;-78
2022/04/13 03:45:45;;;;;;;19.13;11.67;;;14.10;99.90;;;;;;5115336;28;20250;-78
2022/04/13 03:48:11;;;;;;;19.93;11.60;;;14.00;99.90;;;;;;5115513;28;20216;-77
2022/04/13 03:50:38;;;;;;;17.77;11.07;;;14.00;99.90;;;;;;5115199;28;20285;-78
2022/04/13 03:53:05;;;;;;;17.30;12.03;;;13.90;99.90;;;;;;5114989;28;20639;-76
2022/04/13 03:55:32;;;;;;;22.50;12.40;;;13.80;99.90;;;;;;5114771;28;20579;-77
2022/04/13 03:58:00;;;;;;;19.57;11.93;;;13.80;99.90;;;;;;5115277;28;20189;-76
2022/04/13 04:00:27;;;;;;;16.37;11.20;;;13.70;99.90;;;;;;5114930;28;20194;-77
2022/04/13 04:02:54;;;;;;;20.40;11.87;;;13.60;99.90;;;;;;5115025;28;20671;-76
2022/04/13 04:05:21;;;;;;;17.33;11.13;;;13.60;99.90;;;;;;5114631;28;20207;-78
2022/04/13 04:07:49;;;;;;;20.30;12.17;;;13.50;99.90;;;;;;5115126;28;20275;-77
2022/04/13 04:10:16;;;;;;;20.70;12.03;;;13.50;99.90;;;;;;5114419;28;20203;-78
2022/04/13 04:12:43;;;;;;;17.83;12.33;;;13.40;99.90;;;;;;5114969;28;20196;-76
2022/04/13 04:15:11;;;;;;;16.57;11.57;;;13.40;99.90;;;;;;5114558;28;20184;-78
2022/04/13 04:17:39;;;;;;;20.90;12.27;;;13.30;99.90;;;;;;5114614;28;20585;-75
2022/04/13 04:20:07;;;;;;;20.50;12.60;;;13.30;99.90;;;;;;5114358;28;20203;-77
2022/04/13 04:22:35;;;;;;;21.10;11.53;;;13.30;99.90;;;;;;5114762;28;20199;-78
2022/04/13 04:25:02;;;;;;;21.63;12.20;;;13.20;99.90;;;;;;5113875;27;20207;-76
2022/04/13 04:27:29;;;;;;;19.00;11.60;;;13.20;99.90;;;;;;5113648;28;20245;-77
2022/04/13 04:29:56;;;;;;;19.30;11.73;;;13.10;99.90;;;;;;5114287;28;20203;-78
2022/04/13 04:32:24;;;;;;;23.50;12.60;;;13.10;99.90;;;;;;5114705;28;20274;-78
2022/04/13 04:34:53;;;;;;;22.87;11.83;;;13.10;99.90;;;;;;5114633;28;20207;-79
2022/04/13 04:37:19;;;;;;;21.87;12.53;;;13.00;99.90;;;;;;5114563;28;20192;-77
2022/04/13 04:39:46;;;;;;;20.20;12.03;;;13.00;99.90;;;;;;5114325;28;20207;-76
2022/04/13 04:42:13;;;;;;;18.67;12.67;;;13.00;99.90;;;;;;5114132;28;20259;-76
2022/04/13 04:44:40;;;;;;;18.83;12.10;;;13.00;99.90;;;;;;5114553;28;20196;-76
2022/04/13 04:47:07;;;;;;;21.63;12.03;;;12.90;99.90;;;;;;5113770;28;20233;-78
2022/04/13 04:49:35;;;;;;;15.97;12.20;;;12.90;99.90;;;;;;5113971;28;20192;-78
2022/04/13 04:52:02;;;;;;;14.77;11.73;;;12.90;99.90;;;;;;5114101;28;20210;-77
2022/04/13 04:54:29;;;;;;;18.67;12.40;;;12.90;99.90;;;;;;5113816;27;20560;-80
2022/04/13 04:56:56;;;;;;;25.07;12.70;;;13.00;99.90;;;;;;5113910;28;20576;-77
2022/04/13 04:59:22;;;;;;;23.37;12.70;;;13.00;99.90;;;;;;5113845;28;20203;-78
2022/04/13 05:01:49;;;;;;;17.20;13.33;;;13.00;99.90;;;;;;5120845;27;20207;-78
2022/04/13 05:04:16;;;;;;;22.58;14.70;;;12.90;99.90;;;;;;5131668;27;20439;-77
2022/04/13 05:06:44;;;;;;;20.80;13.43;;;13.10;99.90;;;;;;5131906;27;20242;-76
2022/04/13 05:09:11;;;;;;;19.43;13.00;;;13.10;99.90;;;;;;5134433;27;20200;-78
2022/04/13 05:11:37;;;;;;;24.07;12.97;;;13.20;99.90;;;;;;5133256;27;20571;-79
2022/04/13 05:14:05;;;;;;;21.63;13.07;;;13.20;99.90;;;;;;5134279;27;20295;-79
2022/04/13 05:16:31;;;;;;;20.33;12.70;;;13.30;99.90;;;;;;5133945;27;20195;-76
2022/04/13 05:18:58;;;;;;;20.90;12.80;;;13.30;99.90;;;;;;5134179;27;20203;-78
2022/04/13 05:21:25;;;;;;;19.23;12.33;;;13.30;99.90;;;;;;5134096;27;20200;-77
2022/04/13 05:23:53;;;;;;;20.40;11.93;;;13.30;99.90;;;;;;5134492;27;20542;-77
2022/04/13 05:26:20;;;;;;;17.17;11.73;;;13.30;99.90;;;;;;5133747;27;20245;-76
2022/04/13 05:28:48;;;;;;;19.30;12.60;;;13.20;99.90;;;;;;5134137;27;20229;-77
2022/04/13 05:31:17;;;;;;;23.67;12.53;;;13.30;99.90;;;;;;5134015;27;20680;-79
2022/04/13 05:33:44;;;;;;;20.83;12.63;;;13.30;99.90;;;;;;5134602;27;20195;-79
2022/04/13 05:36:11;;;;;;;20.23;11.93;;;13.30;99.90;;;;;;5133975;27;20202;-77
2022/04/13 05:38:39;;;;;;;20.17;11.87;;;13.30;99.90;;;;;;5133800;27;20213;-76
2022/04/13 05:41:07;;;;;;;22.27;12.27;;;13.30;99.90;;;;;;5133807;27;20583;-76
2022/04/13 05:43:36;;;;;;;15.13;11.53;;;13.40;99.90;;;;;;5133279;27;20210;-76
2022/04/13 05:46:03;;;;;;;17.00;11.93;;;13.40;99.90;;;;;;5133886;27;20573;-76
2022/04/13 05:48:29;;;;;;;20.63;12.97;;;13.50;99.90;;;;;;5133332;27;20522;-78
2022/04/13 05:50:56;;;;;;;27.10;12.33;;;13.60;99.90;;;;;;5133313;27;20631;-77
2022/04/13 05:53:24;;;;;;;19.50;13.37;;;13.60;99.90;;;;;;5133899;27;20210;-75
2022/04/13 05:55:55;;;;;;;18.63;12.80;;;13.70;99.90;;;;;;5133626;27;20199;-76
2022/04/13 05:58:24;;;;;;;17.93;11.97;;;13.70;99.90;;;;;;5133425;27;20203;-78
2022/04/13 06:00:51;;;;;;;20.07;11.87;;;13.70;99.90;;;;;;5133201;27;20199;-77
2022/04/13 06:03:18;;;;;;;21.17;11.97;;;13.70;99.90;;;;;;5133814;27;20195;-78
2022/04/13 06:05:45;;;;;;;15.83;11.97;;;13.80;99.90;;;;;;5133552;27;20187;-77
2022/04/13 06:08:12;;;;;;;24.83;12.53;;;13.70;99.90;;;;;;5133816;27;20187;-76
2022/04/13 06:10:40;;;;;;;23.13;12.20;;;13.80;99.90;;;;;;5133520;27;20203;-77
2022/04/13 06:13:07;;;;;;;22.47;12.37;;;13.80;99.90;;;;;;5133716;27;20274;-77
2022/04/13 06:15:36;;;;;;;17.47;12.10;;;13.80;99.90;;;;;;5133755;27;20207;-77
2022/04/13 06:18:03;;;;;;;22.30;11.77;;;13.90;99.90;;;;;;5133842;27;20206;-77
2022/04/13 06:20:29;;;;;;;20.80;12.30;;;13.70;99.90;;;;;;5133268;27;20205;-77
2022/04/13 06:22:56;;;;;;;17.17;11.67;;;13.90;99.90;;;;;;5133755;27;20282;-76
2022/04/13 06:25:24;;;;;;;19.30;12.00;;;14.10;99.90;;;;;;5133653;27;20200;-76
2022/04/13 06:27:50;;;;;;;16.73;12.30;;;14.20;99.90;;;;;;5133328;27;20259;-75
2022/04/13 06:30:17;;;;;;;17.88;12.95;;;14.20;99.90;;;;;;5133074;27;20432;-75
2022/04/13 06:32:47;;;;;;;24.87;12.10;;;14.30;99.90;;;;;;5133220;27;20227;-77
2022/04/13 06:35:15;;;;;;;17.27;11.53;;;14.40;99.90;;;;;;5123682;27;20197;-77
2022/04/13 06:37:44;;;;;;;15.97;10.67;;;14.40;99.90;;;;;;5115425;27;20682;-77
2022/04/13 06:40:12;;;;;;;20.23;11.10;;;14.30;99.90;;;;;;5119161;27;20647;-78
2022/04/13 06:42:40;;;;;;;15.70;10.10;;;14.20;99.90;;;;;;5122903;27;20188;-77
2022/04/13 06:45:10;;;;;;;21.43;11.23;;;14.20;99.90;;;;;;5123543;27;20201;-78
2022/04/13 06:47:37;;;;;;;19.13;10.83;;;14.10;99.90;;;;;;5121956;27;20248;-78
2022/04/13 06:50:06;;;;;;;20.57;11.20;;;14.20;99.90;;;;;;5122492;27;20203;-78
2022/04/13 06:52:34;;;;;;;19.23;10.67;;;14.20;99.90;;;;;;5127759;27;20191;-78
2022/04/13 06:55:00;;;;;;;15.73;9.43;;;14.40;99.90;;;;;;5116549;28;21447;-76
2022/04/13 06:57:27;;;;;;;16.60;9.37;;;14.40;99.90;;;;;;5116641;28;20205;-77
2022/04/13 06:59:54;;;;;;;16.93;9.97;;;14.60;99.90;;;;;;5115919;28;20204;-77
2022/04/13 07:02:21;;;;;;;19.00;9.30;;;14.70;99.90;;;;;;5116635;28;20279;-76
2022/04/13 07:04:48;;;;;;;16.53;9.43;;;14.90;99.90;;;;;;5115732;28;20196;-77
2022/04/13 07:07:16;;;;;;;14.37;9.17;;;15.10;99.90;;;;;;5117064;27;20233;-78
2022/04/13 07:09:43;;;;;;;13.60;9.03;;;15.30;99.90;;;;;;5129830;27;20196;-77
2022/04/13 07:12:10;;;;;;;14.43;9.67;;;15.40;99.90;;;;;;5123732;27;20188;-76
2022/04/13 07:14:37;;;;;;;16.40;8.80;;;15.40;99.90;;;;;;5127138;27;20191;-78
2022/04/13 07:17:04;;;;;;;15.80;9.50;;;15.30;99.90;;;;;;5127429;27;20200;-78
2022/04/13 07:19:31;;;;;;;17.10;9.30;;;15.60;99.90;;;;;;5135808;27;20200;-78
2022/04/13 07:21:59;;;;;;;16.57;8.00;;;15.60;99.90;;;;;;5136505;27;20193;-78
2022/04/13 07:24:28;;;;;;;17.87;7.90;;;15.80;99.90;;;;;;5136299;27;20199;-79
2022/04/13 07:26:54;;;;;;;11.93;8.90;;;15.90;99.90;;;;;;5136541;27;20233;-80
2022/04/13 07:29:22;;;;;;;9.13;7.73;;;16.00;99.90;;;;;;5136576;27;20207;-79
2022/04/13 07:31:48;;;;;;;12.23;7.03;;;16.10;99.90;;;;;;5135814;27;20210;-79
2022/04/13 07:34:16;;;;;;;16.03;7.23;;;15.70;99.90;;;;;;5133259;27;20664;-78
2022/04/13 07:36:43;;;;;;;13.57;8.07;;;15.90;99.90;;;;;;5131571;27;20515;-78
2022/04/13 07:39:10;;;;;;;16.33;8.20;;;15.90;99.90;;;;;;5135518;27;20209;-78
2022/04/13 07:41:38;;;;;;;15.33;7.03;;;15.70;99.90;;;;;;5126402;27;20221;-78
2022/04/13 07:44:05;;;;;;;11.90;7.37;;;15.50;99.90;;;;;;5129496;27;20211;-79
2022/04/13 07:46:32;;;;;;;14.70;7.30;;;15.50;99.90;;;;;;5134458;27;20209;-80
2022/04/13 07:49:05;;;;;;;12.17;7.63;;;15.60;99.90;;;;;;5135351;27;20210;-81
2022/04/13 07:51:33;;;;;;;12.77;7.50;;;15.60;99.90;;;;;;5135621;27;20260;-81
2022/04/13 07:54:01;;;;;;;9.37;7.43;;;15.40;99.90;;;;;;5135925;27;20204;-80
2022/04/13 07:56:28;;;;;;;12.93;6.73;;;15.30;99.90;;;;;;5136086;27;20200;-77
2022/04/13 07:58:56;;;;;;;11.55;7.60;;;15.30;99.90;;;;;;5135242;27;20423;-79
2022/04/13 08:01:23;;;;;;;10.80;7.13;;;15.50;99.90;;;;;;5128735;27;20195;-80
2022/04/13 08:03:50;;;;;;;12.20;6.80;;;15.50;99.90;;;;;;5126131;27;20191;-79
2022/04/13 08:06:16;;;;;;;11.93;6.50;;;15.40;99.90;;;;;;5124648;27;20205;-77
2022/04/13 08:08:43;;;;;;;13.10;6.80;;;15.40;99.90;;;;;;5129624;27;20239;-81
2022/04/13 08:11:10;;;;;;;10.20;7.07;;;15.60;99.90;;;;;;5135379;27;20252;-79
2022/04/13 08:13:37;;;;;;;14.50;7.13;;;15.40;99.90;;;;;;5135565;27;20276;-80
2022/04/13 08:16:05;;;;;;;9.93;7.27;;;15.30;99.90;;;;;;5134786;27;20209;-79
2022/04/13 08:18:32;;;;;;;11.07;7.37;;;15.60;99.90;;;;;;5134217;27;20211;-80
2022/04/13 08:21:00;;;;;;;11.00;6.97;;;15.50;99.90;;;;;;5135476;27;20200;-78
2022/04/13 08:23:26;;;;;;;10.40;6.80;;;15.70;99.90;;;;;;5135982;27;20325;-77
2022/04/13 08:25:53;;;;;;;11.00;7.10;;;15.80;99.90;;;;;;5135496;27;20556;-78
2022/04/13 08:28:21;;;;;;;11.40;7.00;;;15.90;99.90;;;;;;5135456;27;20228;-78
2022/04/13 08:30:48;;;;;;;10.57;7.07;;;16.20;99.90;;;;;;5136324;27;20219;-80
2022/04/13 08:33:16;;;;;;;12.33;7.37;;;16.10;99.90;;;;;;5139811;27;20200;-78
2022/04/13 08:35:42;;;;;;;9.27;6.87;;;15.90;99.90;;;;;;5138537;27;20203;-77
2022/04/13 08:38:09;;;;;;;13.67;7.37;;;15.90;99.90;;;;;;5139821;27;20190;-80
2022/04/13 08:40:44;;;;;;;14.30;7.40;;;15.90;99.90;;;;;;5139655;27;20268;-82
2022/04/13 08:43:22;;;;;;;10.23;7.10;;;15.90;99.90;;;;;;5137186;27;20193;-82
2022/04/13 08:45:56;;;;;;;13.40;6.80;;;16.10;99.90;;;;;;5136477;27;20190;-84
2022/04/13 08:48:27;;;;;;;11.50;7.30;;;16.00;99.90;;;;;;5136479;27;20229;-84
2022/04/13 08:50:59;;;;;;;14.80;7.40;;;16.20;99.90;;;;;;5136117;27;20205;-82
2022/04/13 08:53:30;;;;;;;10.20;6.77;;;16.30;99.90;;;;;;5118545;27;20217;-84
2022/04/13 08:55:58;;;;;;;15.00;7.50;;;16.30;99.90;;;;;;5135421;27;20262;-82
2022/04/13 08:58:35;;;;;;;9.57;6.83;;;16.20;99.90;;;;;;5135623;27;20210;-83
2022/04/13 09:01:08;;;;;;;9.63;6.77;;;16.10;99.90;;;;;;5135007;27;20785;-78
2022/04/13 09:03:43;;;;;;;12.77;6.83;;;16.00;99.90;;;;;;5134699;27;20193;-81
2022/04/13 09:06:12;;;;;;;14.63;7.27;;;15.90;99.90;;;;;;5135152;27;20198;-86
2022/04/13 09:08:51;;;;;;;12.50;8.00;;;15.80;99.90;;;;;;5134456;27;20230;-78
2022/04/13 09:11:20;;;;;;;11.10;7.67;;;15.80;99.90;;;;;;5134590;27;20200;-82
2022/04/13 09:13:50;;;;;;;12.67;7.60;;;15.70;99.90;;;;;;5133527;27;20257;-79
2022/04/13 09:16:17;;;;;;;12.13;7.13;;;15.70;99.90;;;;;;5131765;27;20196;-81
2022/04/13 09:18:46;;;;;;;12.10;7.57;;;15.60;99.90;;;;;;5128047;27;20194;-80
2022/04/13 09:21:17;;;;;;;12.53;7.00;;;15.50;99.90;;;;;;5126946;27;20197;-81
2022/04/13 09:23:44;;;;;;;10.80;7.63;;;15.30;99.90;;;;;;5122459;27;20204;-82
2022/04/13 09:26:11;;;;;;;11.47;7.50;;;15.30;99.90;;;;;;5114085;28;20280;-82
2022/04/13 09:28:38;;;;;;;14.00;8.27;;;15.20;99.90;;;;;;5114573;27;20196;-85
2022/04/13 09:31:06;;;;;;;13.87;8.13;;;15.20;99.90;;;;;;5115833;28;20212;-88
2022/04/13 09:33:33;;;;;;;13.47;8.20;;;15.10;99.90;;;;;;5117309;28;20185;-79
2022/04/13 09:36:01;;;;;;;11.90;8.50;;;15.20;99.90;;;;;;5115663;28;20194;-84
2022/04/13 09:38:29;;;;;;;12.93;8.70;;;15.30;99.90;;;;;;5114425;28;20211;-83
2022/04/13 09:41:07;;;;;;;11.80;9.20;;;15.30;99.90;;;;;;5113543;27;20400;-81
2022/04/13 09:43:34;;;;;;;13.63;9.37;;;15.30;99.90;;;;;;5113683;28;20197;-80
2022/04/13 09:46:03;;;;;;;13.63;10.10;;;15.20;99.90;;;;;;5113780;27;20208;-84
2022/04/13 09:48:34;;;;;;;11.20;8.63;;;15.20;99.90;;;;;;5113842;28;20220;-86
2022/04/13 09:51:08;;;;;;;14.33;9.30;;;15.10;99.90;;;;;;5113564;27;20212;-88
2022/04/13 09:53:42;;;;;;;16.13;9.60;;;15.00;99.90;;;;;;5114370;28;20195;-86
2022/04/13 09:56:18;;;;;;;16.08;11.00;;;15.10;99.90;;;;;;5113725;28;20448;-84
2022/04/13 09:58:49;;;;;;;14.17;10.07;;;15.10;99.90;;;;;;5113759;28;20631;-83
2022/04/13 10:01:20;;;;;;;15.33;9.30;;;15.10;99.90;;;;;;5113540;28;20195;-87
2022/04/13 10:03:54;;;;;;;13.53;8.77;;;15.00;99.90;;;;;;5113325;28;20205;-85
2022/04/13 10:06:29;;;;;;;13.07;8.50;;;15.10;99.90;;;;;;5113612;28;20720;-83
2022/04/13 10:09:01;;;;;;;14.30;8.90;;;15.00;99.90;;;;;;5112910;28;20280;-85
2022/04/13 10:11:28;;;;;;;14.13;10.13;;;15.00;99.90;;;;;;5112049;28;20481;-79
2022/04/13 10:13:54;;;;;;;12.23;9.60;;;15.10;99.90;;;;;;5114539;27;20200;-79
2022/04/13 10:16:21;;;;;;;11.07;8.87;;;15.10;99.90;;;;;;5118997;27;20628;-77
2022/04/13 10:18:58;;;;;;;14.70;10.27;;;15.00;99.90;;;;;;5124150;28;20187;-83
2022/04/13 10:21:51;;;;;;;15.33;10.10;;;15.00;99.90;;;;;;5120971;28;20192;-78
2022/04/13 10:24:27;;;;;;;13.17;10.77;;;15.10;99.90;;;;;;5112443;28;20200;-80
2022/04/13 10:27:01;;;;;;;18.27;12.40;;;15.10;99.90;;;;;;5114164;27;20437;-80
2022/04/13 10:29:29;;;;;;;16.70;11.83;;;15.20;99.90;;;;;;5116550;27;20583;-83
2022/04/13 10:32:09;;;;;;;14.87;12.33;;;15.30;99.90;;;;;;5117305;27;20208;-87
2022/04/13 10:34:45;;;;;;;13.47;11.53;;;15.30;99.90;;;;;;5117949;28;20217;-87
2022/04/13 10:37:20;;;;;;;18.40;12.03;;;15.30;99.90;;;;;;5118120;28;20195;-89
2022/04/13 10:39:49;;;;;;;16.23;12.13;;;15.30;99.90;;;;;;5117470;28;20196;-80
2022/04/13 10:42:20;;;;;;;15.95;14.23;;;15.30;99.90;;;;;;5116244;27;20424;-88
2022/04/13 10:44:51;;;;;;;16.00;12.70;;;15.30;99.90;;;;;;5117194;28;20284;-88
2022/04/13 10:47:41;;;;;;;16.40;13.63;;;15.20;99.90;;;;;;5117401;27;20701;-88
2022/04/13 10:50:10;;;;;;;17.23;13.00;;;15.00;99.90;;;;;;5117179;28;20200;-79
2022/04/13 10:52:46;;;;;;;18.50;13.70;;;14.90;99.90;;;;;;5117546;28;20192;-88
2022/04/13 10:55:15;;;;;;;20.17;13.53;;;14.80;99.90;;;;;;5116544;27;20192;-88
2022/04/13 10:57:47;;;;;;;23.30;17.10;;;14.80;99.90;;;;;;5116546;27;20441;-86
2022/04/13 11:00:17;;;;;;;18.50;15.40;;;15.10;99.90;;;;;;5116459;27;20302;-82
2022/04/13 11:02:50;;;;;;;23.03;15.10;;;15.30;99.90;;;;;;5116901;27;20213;-80
2022/04/13 11:05:18;;;;;;;17.07;13.57;;;15.50;99.90;;;;;;5117168;27;20748;-82
2022/04/13 11:07:55;;;;;;;17.17;13.93;;;15.60;99.90;;;;;;5117009;27;20220;-83
2022/04/13 11:10:32;;;;;;;16.00;13.33;;;15.50;99.90;;;;;;5116882;28;20271;-80
2022/04/13 11:13:00;;;;;;;18.23;15.90;;;15.40;99.90;;;;;;5117146;28;20482;-83
2022/04/13 11:15:42;;;;;;;19.77;15.23;;;15.60;99.90;;;;;;5117112;27;20198;-81
2022/04/13 11:18:13;;;;;;;19.40;15.00;;;15.80;99.90;;;;;;5117258;28;20240;-82
2022/04/13 11:21:05;;;;;;;17.90;14.17;;;15.90;99.90;;;;;;5117891;27;20262;-84
2022/04/13 11:23:54;;;;;;;15.53;13.90;;;15.90;99.90;;;;;;5118427;28;20203;-84
2022/04/13 11:26:49;;;;;;;15.77;14.17;;;15.80;99.90;;;;;;5118657;27;20254;-87
2022/04/13 11:29:17;;;;;;;14.57;12.67;;;15.80;99.90;;;;;;5122080;28;20209;-82
2022/04/13 11:32:11;;;;;;;14.47;13.00;;;15.80;99.90;;;;;;5131160;27;20228;-86
2022/04/13 11:34:41;;;;;;;14.60;12.43;;;15.70;99.90;;;;;;5129026;28;20668;-86
2022/04/13 11:37:10;;;;;;;16.67;13.53;;;15.70;99.90;;;;;;5128946;28;20266;-86
2022/04/13 11:39:54;;;;;;;16.90;13.33;;;16.00;99.90;;;;;;5130006;27;20283;-85
2022/04/13 11:42:53;;;;;;;15.50;11.97;;;16.20;99.90;;;;;;5122337;27;20217;-82
2022/04/13 11:45:22;;;;;;;13.37;11.93;;;16.10;99.90;;;;;;5116195;28;20669;-85
2022/04/13 11:48:03;;;;;;;17.67;12.97;;;16.00;99.90;;;;;;5120960;27;20218;-82
2022/04/13 11:50:36;;;;;;;14.47;11.73;;;16.20;99.90;;;;;;5138176;27;20700;-81
2022/04/13 11:53:06;;;;;;;13.40;12.10;;;16.10;99.90;;;;;;5114651;28;20207;-80
2022/04/13 11:55:42;;;;;;;15.17;12.60;;;16.00;99.90;;;;;;5115791;28;20280;-81
2022/04/13 11:58:25;;;;;;;15.40;13.00;;;15.90;99.90;;;;;;5115704;28;20678;-81
2022/04/13 12:01:00;;;;;;;16.17;13.10;;;15.80;99.90;;;;;;5116140;28;20326;-81
2022/04/13 12:03:30;;;;;;;16.53;13.43;;;15.80;99.90;;;;;;5116329;28;20748;-82
2022/04/13 12:06:00;;;;;;;19.80;15.63;;;16.00;99.90;;;;;;5114923;28;20206;-81
2022/04/13 12:08:29;;;;;;;17.13;15.33;;;16.20;99.90;;;;;;5114790;27;20219;-81
2022/04/13 12:10:58;;;;;;;17.27;15.47;;;16.30;99.90;;;;;;5116115;27;20208;-80
2022/04/13 12:13:26;;;;;;;18.30;14.13;;;16.50;99.90;;;;;;5115774;27;20290;-82
2022/04/13 12:15:55;;;;;;;16.97;14.07;;;16.70;99.90;;;;;;5115769;28;20213;-80
2022/04/13 12:18:24;;;;;;;17.90;13.13;;;16.70;99.90;;;;;;5115810;28;20214;-82
2022/04/13 12:20:55;;;;;;;16.00;13.47;;;16.70;99.90;;;;;;5115335;27;20208;-83
2022/04/13 12:23:26;;;;;;;16.97;13.87;;;16.70;99.90;;;;;;5114999;28;20733;-80
2022/04/13 12:25:54;;;;;;;15.73;13.93;;;16.40;99.90;;;;;;5115311;27;20210;-80
2022/04/13 12:28:25;;;;;;;17.63;15.03;;;16.40;99.90;;;;;;5115605;28;20257;-83
2022/04/13 12:31:01;;;;;;;15.80;13.70;;;16.50;99.90;;;;;;5115766;28;20198;-83
2022/04/13 12:33:30;;;;;;;15.40;13.13;;;16.40;99.90;;;;;;5115644;27;20206;-85
2022/04/13 12:35:59;;;;;;;16.83;12.93;;;16.50;99.90;;;;;;5117017;27;20205;-84
2022/04/13 12:38:31;;;;;;;13.53;12.00;;;16.40;99.90;;;;;;5118290;28;20197;-78
2022/04/13 12:41:10;;;;;;;16.30;14.27;;;16.40;99.90;;;;;;5114960;28;20938;-79